Time;durP1;ratioP1;P1;durP2;ratioP2;P2;SDS_P1;SDS_P2;PMS_P1;PMS_P2;Temp;Humidity;BMP_temperature;BMP_pressure;BME280_temperature;BME280_humidity;BME280_pressure;Samples;Min_cycle;Max_cycle;Signal;HPM_P1;HPM_P2
2021/04/12 00:01:44;;;;;;;28.52;19.40;;;9.70;43.70;;;;;;6312954;22;20010;-86
2021/04/12 00:04:23;;;;;;;21.83;15.10;;;9.60;44.00;;;;;;6340506;22;20423;-86
2021/04/12 00:07:01;;;;;;;17.63;13.70;;;9.60;43.60;;;;;;6313382;22;20017;-86
2021/04/12 00:10:08;;;;;;;23.92;14.50;;;9.60;43.30;;;;;;6312900;22;20047;-86
2021/04/12 00:12:55;;;;;;;24.33;15.82;;;9.60;44.60;;;;;;6337688;22;20064;-86
2021/04/12 00:15:32;;;;;;;22.90;17.75;;;9.60;44.10;;;;;;6313177;22;20038;-86
2021/04/12 00:18:06;;;;;;;19.35;14.88;;;9.50;44.10;;;;;;6312693;22;19998;-86
2021/04/12 00:20:35;;;;;;;;;;;9.50;44.00;;;;;;6340727;22;20056;-87
2021/04/12 00:23:20;;;;;;;24.02;14.15;;;9.40;46.10;;;;;;6312530;22;19906;-87
2021/04/12 00:25:59;;;;;;;26.08;18.52;;;9.40;43.90;;;;;;6312776;22;20009;-86
2021/04/12 00:28:38;;;;;;;25.48;17.90;;;9.40;45.80;;;;;;6312982;22;20003;-86
2021/04/12 00:31:16;;;;;;;22.88;14.90;;;9.30;45.00;;;;;;6313314;22;20414;-86
2021/04/12 00:33:42;;;;;;;24.85;16.55;;;9.30;45.00;;;;;;6313024;22;20006;-85
2021/04/12 00:36:16;;;;;;;27.63;18.15;;;9.30;44.50;;;;;;6313248;22;19999;-86
2021/04/12 00:39:14;;;;;;;27.20;18.05;;;9.30;45.00;;;;;;6340217;22;19991;-86
2021/04/12 00:42:02;;;;;;;30.08;18.63;;;9.20;45.20;;;;;;6312378;22;20089;-86
2021/04/12 00:45:09;;;;;;;24.60;18.15;;;9.30;45.30;;;;;;6313019;22;20076;-86
2021/04/12 00:47:56;;;;;;;26.60;18.55;;;9.30;45.40;;;;;;6337272;22;20022;-86
2021/04/12 00:50:47;;;;;;;25.27;17.67;;;9.30;45.40;;;;;;6312465;22;19995;-86
2021/04/12 00:53:40;;;;;;;27.73;19.65;;;9.30;45.20;;;;;;6313367;22;20011;-86
2021/04/12 00:56:30;;;;;;;25.20;16.42;;;9.30;45.10;;;;;;6312454;22;20367;-85
2021/04/12 00:58:55;;;;;;;25.77;18.23;;;9.30;45.10;;;;;;6312875;22;20366;-86
2021/04/12 01:01:38;;;;;;;25.25;19.15;;;9.30;45.10;;;;;;6339899;22;20013;-86
2021/04/12 01:04:22;;;;;;;29.25;18.80;;;9.30;45.70;;;;;;6312350;22;20073;-86
2021/04/12 01:07:11;;;;;;;27.13;19.35;;;9.30;45.80;;;;;;6312155;22;20053;-86
2021/04/12 01:10:03;;;;;;;28.25;19.35;;;9.20;45.70;;;;;;6267029;22;20007;-85
2021/04/12 01:13:00;;;;;;;26.55;18.27;;;9.20;46.40;;;;;;6311920;22;20024;-86
2021/04/12 01:15:31;;;;;;;27.95;18.67;;;9.10;47.10;;;;;;6314111;22;20410;-86
2021/04/12 01:18:32;;;;;;;27.25;19.23;;;9.10;46.30;;;;;;6313263;22;20005;-86
2021/04/12 01:21:17;;;;;;;24.20;16.85;;;9.00;46.80;;;;;;6290930;22;20068;-86
2021/04/12 01:24:31;;;;;;;29.00;17.65;;;9.00;46.40;;;;;;6312769;22;20322;-86
2021/04/12 01:26:57;;;;;;;30.75;18.52;;;9.00;46.60;;;;;;6183927;23;20080;-86
2021/04/12 01:30:00;;;;;;;25.38;15.98;;;8.90;46.50;;;;;;6295138;22;20031;-86
2021/04/12 01:33:00;;;;;;;28.90;20.52;;;8.90;46.30;;;;;;6312000;22;20303;-86
2021/04/12 01:36:03;;;;;;;25.02;17.38;;;8.90;48.10;;;;;;6311945;22;19999;-86
2021/04/12 01:38:37;;;;;;;26.98;18.95;;;8.80;47.80;;;;;;6311603;22;19995;-86
2021/04/12 01:41:42;;;;;;;28.33;17.35;;;8.70;47.50;;;;;;6312046;22;20004;-86
2021/04/12 01:44:26;;;;;;;23.90;17.38;;;8.70;48.60;;;;;;6339428;22;20003;-85
2021/04/12 01:47:16;;;;;;;27.65;18.45;;;8.70;47.80;;;;;;6341801;22;19991;-86
2021/04/12 01:49:42;;;;;;;23.85;16.10;;;8.70;48.00;;;;;;6314084;22;20031;-86
2021/04/12 01:52:40;;;;;;;29.98;20.63;;;8.60;47.90;;;;;;6341704;22;19995;-85
2021/04/12 01:55:33;;;;;;;25.15;17.25;;;8.60;50.10;;;;;;6341694;22;19995;-85
2021/04/12 01:58:08;;;;;;;30.15;19.30;;;8.60;48.30;;;;;;6313954;22;20002;-85
2021/04/12 02:01:08;;;;;;;24.63;17.20;;;8.60;49.00;;;;;;6313959;22;20292;-86
2021/04/12 02:03:49;;;;;;;28.10;19.17;;;8.50;49.30;;;;;;6313870;22;20006;-85
2021/04/12 02:06:42;;;;;;;23.42;16.75;;;8.50;48.50;;;;;;6314304;22;19999;-86
2021/04/12 02:09:26;;;;;;;27.42;17.45;;;8.50;49.20;;;;;;6314756;22;20299;-87
2021/04/12 02:12:09;;;;;;;27.17;18.73;;;8.40;48.50;;;;;;6313888;22;20010;-86
2021/04/12 02:14:51;;;;;;;30.67;20.08;;;8.40;48.60;;;;;;6313956;22;20231;-86
2021/04/12 02:17:39;;;;;;;28.00;17.88;;;8.40;48.70;;;;;;6341041;22;19995;-86
2021/04/12 02:20:36;;;;;;;28.42;19.50;;;8.40;48.80;;;;;;6313832;22;20024;-86
2021/04/12 02:23:07;;;;;;;24.25;17.65;;;8.40;48.80;;;;;;6313691;22;20011;-85
2021/04/12 02:26:15;;;;;;;30.63;20.20;;;8.40;48.40;;;;;;6341321;22;19999;-86
2021/04/12 02:28:57;;;;;;;28.88;19.00;;;8.40;49.40;;;;;;6268602;22;20308;-86
2021/04/12 02:31:38;;;;;;;29.10;20.30;;;8.40;48.40;;;;;;6340945;22;20013;-85
2021/04/12 02:34:33;;;;;;;28.45;18.70;;;8.40;48.60;;;;;;6313747;22;20002;-85
2021/04/12 02:37:17;;;;;;;23.75;18.15;;;8.30;48.80;;;;;;6331652;22;20366;-86
2021/04/12 02:39:49;;;;;;;28.02;19.88;;;8.30;50.00;;;;;;6341230;22;20003;-86
2021/04/12 02:42:36;;;;;;;31.95;20.25;;;8.30;49.40;;;;;;6314598;22;20349;-85
2021/04/12 02:45:14;;;;;;;31.20;19.27;;;8.20;49.40;;;;;;6313719;22;20363;-86
2021/04/12 02:47:50;;;;;;;30.15;19.08;;;8.20;49.60;;;;;;6313938;22;20026;-86
2021/04/12 02:50:34;;;;;;;28.35;18.75;;;8.10;50.00;;;;;;6313496;22;20006;-85
2021/04/12 02:53:24;;;;;;;26.80;19.60;;;8.10;50.90;;;;;;6340654;22;20006;-86
2021/04/12 02:56:32;;;;;;;26.85;18.50;;;8.00;50.90;;;;;;6313776;22;19998;-86
2021/04/12 02:59:46;;;;;;;30.15;20.13;;;7.90;51.90;;;;;;6313682;22;19995;-86
2021/04/12 03:02:12;;;;;;;29.15;19.20;;;7.90;51.90;;;;;;6272388;22;20038;-86
2021/04/12 03:04:40;;;;;;;29.13;19.25;;;7.80;51.30;;;;;;6314385;22;19999;-86
2021/04/12 03:07:28;;;;;;;24.45;16.52;;;7.80;51.20;;;;;;6313570;22;20055;-85
2021/04/12 03:10:22;;;;;;;25.73;16.45;;;7.80;51.00;;;;;;6313211;22;19999;-85
2021/04/12 03:13:01;;;;;;;33.90;19.95;;;7.80;51.00;;;;;;6341167;22;20007;-86
2021/04/12 03:15:50;;;;;;;27.45;18.40;;;7.70;51.60;;;;;;6313999;22;20065;-85
2021/04/12 03:18:53;;;;;;;28.98;19.48;;;7.70;52.40;;;;;;6312782;22;20081;-86
2021/04/12 03:22:02;;;;;;;26.15;18.27;;;7.70;51.90;;;;;;6312703;22;20090;-86
2021/04/12 03:25:01;;;;;;;32.85;20.13;;;7.70;52.10;;;;;;6184576;23;20464;-85
2021/04/12 03:27:45;;;;;;;31.38;21.65;;;7.70;54.00;;;;;;6298904;22;20003;-86
2021/04/12 03:30:28;;;;;;;34.28;21.30;;;7.70;52.60;;;;;;6313114;22;19998;-85
2021/04/12 03:32:57;;;;;;;34.63;20.40;;;7.70;52.30;;;;;;6313632;22;20006;-86
2021/04/12 03:35:41;;;;;;;31.92;20.90;;;7.80;52.60;;;;;;6313467;22;20003;-86
2021/04/12 03:38:28;;;;;;;25.55;19.10;;;7.80;52.50;;;;;;6340804;22;20074;-85
2021/04/12 03:41:12;;;;;;;33.92;22.90;;;7.80;52.60;;;;;;6312981;22;20296;-86
2021/04/12 03:43:53;;;;;;;28.42;21.08;;;7.80;52.60;;;;;;6312928;22;20007;-86
2021/04/12 03:46:45;;;;;;;32.15;21.27;;;7.80;52.60;;;;;;6312846;22;20024;-85
2021/04/12 03:50:01;;;;;;;28.45;19.27;;;7.80;52.60;;;;;;6338868;22;20430;-86
2021/04/12 03:52:38;;;;;;;29.08;19.45;;;7.80;53.50;;;;;;6184629;23;20496;-86
2021/04/12 03:55:28;;;;;;;29.98;18.77;;;7.80;52.90;;;;;;6334347;22;19999;-84
2021/04/12 03:58:14;;;;;;;29.35;18.33;;;7.90;53.20;;;;;;6340143;22;20094;-85
2021/04/12 04:00:54;;;;;;;34.38;22.38;;;7.90;52.50;;;;;;6313517;22;19994;-85
2021/04/12 04:03:26;;;;;;;28.77;20.52;;;8.00;53.10;;;;;;6340362;22;20010;-85
2021/04/12 04:06:19;;;;;;;33.35;21.55;;;7.90;53.20;;;;;;6312695;22;20391;-86
2021/04/12 04:09:20;;;;;;;34.45;25.60;;;8.00;54.00;;;;;;6312460;22;20077;-86
2021/04/12 04:11:46;;;;;;;36.42;24.48;;;8.00;54.10;;;;;;6256881;22;20040;-85
2021/04/12 04:14:16;;;;;;;33.70;22.77;;;8.00;53.30;;;;;;6312384;22;19999;-86
2021/04/12 04:17:06;;;;;;;35.33;22.70;;;8.00;53.10;;;;;;6312787;22;20108;-85
2021/04/12 04:19:37;;;;;;;34.70;22.95;;;8.00;53.60;;;;;;6340285;22;20028;-86
2021/04/12 04:22:09;;;;;;;30.13;22.52;;;8.00;53.30;;;;;;6311921;22;20014;-85
2021/04/12 04:25:12;;;;;;;36.78;24.38;;;8.00;53.10;;;;;;6312536;22;20005;-85
2021/04/12 04:28:05;;;;;;;32.28;24.38;;;8.00;54.00;;;;;;6313002;22;20111;-85
2021/04/12 04:30:44;;;;;;;38.97;24.95;;;8.00;53.80;;;;;;6312328;22;20482;-85
2021/04/12 04:33:40;;;;;;;35.47;22.40;;;8.10;54.10;;;;;;6340154;22;20003;-85
2021/04/12 04:36:28;;;;;;;33.30;22.55;;;8.10;53.50;;;;;;6312704;22;19998;-85
2021/04/12 04:39:03;;;;;;;28.52;19.38;;;8.20;53.40;;;;;;6315789;22;19995;-85
2021/04/12 04:42:17;;;;;;;32.45;20.95;;;8.10;52.80;;;;;;6328338;22;20402;-84
2021/04/12 04:45:06;;;;;;;32.33;22.48;;;8.20;53.20;;;;;;6198952;23;20488;-85
2021/04/12 04:47:54;;;;;;;34.67;22.52;;;8.20;53.30;;;;;;6197648;23;20001;-86
2021/04/12 04:50:29;;;;;;;31.08;20.58;;;8.20;53.20;;;;;;6309135;22;20091;-85
2021/04/12 04:53:04;;;;;;;30.40;20.77;;;8.20;54.00;;;;;;6313073;22;20033;-85
2021/04/12 04:55:47;;;;;;;35.63;24.33;;;8.20;53.20;;;;;;6339603;22;19998;-85
2021/04/12 04:58:22;;;;;;;30.27;21.27;;;8.20;53.80;;;;;;6312034;22;20005;-86
2021/04/12 05:00:57;;;;;;;32.03;23.90;;;8.20;53.90;;;;;;6311227;22;19999;-85
2021/04/12 05:03:38;;;;;;;30.50;21.17;;;8.30;53.90;;;;;;6311743;22;20334;-84
2021/04/12 05:06:13;;;;;;;27.98;19.38;;;8.30;54.10;;;;;;6339606;22;19999;-85
2021/04/12 05:09:02;;;;;;;31.40;20.23;;;8.30;53.80;;;;;;6311902;22;20005;-86
2021/04/12 05:12:03;;;;;;;31.15;21.15;;;8.30;54.20;;;;;;6311054;22;20097;-86
2021/04/12 05:14:54;;;;;;;28.88;22.23;;;8.30;53.80;;;;;;6288694;22;20474;-86
2021/04/12 05:18:11;;;;;;;29.67;19.52;;;8.40;54.10;;;;;;6314295;22;20005;-86
2021/04/12 05:21:05;;;;;;;27.90;21.60;;;8.40;54.30;;;;;;6280005;22;20002;-85
2021/04/12 05:23:39;;;;;;;;;;;8.50;54.10;;;;;;6322268;22;20093;-86
2021/04/12 05:26:23;;;;;;;32.20;21.95;;;8.40;54.70;;;;;;6319767;22;19925;-86
2021/04/12 05:29:07;;;;;;;;;;;8.50;54.60;;;;;;6313123;22;20053;-85
2021/04/12 05:32:00;;;;;;;29.92;21.67;;;8.40;55.60;;;;;;6311522;22;19909;-86
2021/04/12 05:34:54;;;;;;;29.30;21.13;;;8.50;55.50;;;;;;6311645;22;20007;-86
2021/04/12 05:37:57;;;;;;;31.58;23.23;;;8.50;55.20;;;;;;6312511;22;20003;-85
2021/04/12 05:40:47;;;;;;;35.08;25.73;;;8.60;57.00;;;;;;6182928;23;20068;-86
2021/04/12 05:43:35;;;;;;;36.22;23.38;;;8.60;56.40;;;;;;6330878;22;20021;-86
2021/04/12 05:46:13;;;;;;;32.60;22.70;;;8.60;57.00;;;;;;6310963;22;20053;-85
2021/04/12 05:48:51;;;;;;;33.58;23.35;;;8.70;56.90;;;;;;6311582;22;20005;-84
2021/04/12 05:51:42;;;;;;;36.95;25.13;;;8.70;56.80;;;;;;6312606;22;20003;-85
2021/04/12 05:54:22;;;;;;;35.65;24.98;;;8.80;58.30;;;;;;6311538;22;20048;-86
2021/04/12 05:57:10;;;;;;;29.33;22.02;;;8.80;57.90;;;;;;6310854;22;20409;-85
2021/04/12 05:59:58;;;;;;;30.77;22.48;;;8.80;58.90;;;;;;6311581;22;19999;-85
2021/04/12 06:03:06;;;;;;;32.95;19.65;;;8.90;58.00;;;;;;6316683;22;20011;-85
2021/04/12 06:06:10;;;;;;;29.00;21.17;;;8.90;58.80;;;;;;6304340;22;20003;-85
2021/04/12 06:08:50;;;;;;;28.33;21.35;;;8.90;58.80;;;;;;6311287;22;20006;-85
2021/04/12 06:11:32;;;;;;;24.27;18.52;;;9.00;59.40;;;;;;6311711;22;20010;-85
2021/04/12 06:14:16;;;;;;;24.70;17.95;;;9.00;58.80;;;;;;6310853;22;20088;-85
2021/04/12 06:16:51;;;;;;;26.33;16.95;;;9.00;58.70;;;;;;6311237;22;19995;-85
2021/04/12 06:19:45;;;;;;;28.17;20.70;;;9.00;58.60;;;;;;6311298;22;20072;-85
2021/04/12 06:22:26;;;;;;;30.45;22.15;;;9.00;59.20;;;;;;6311314;22;20397;-85
2021/04/12 06:25:20;;;;;;;27.15;19.90;;;9.00;60.90;;;;;;6310712;22;20137;-85
2021/04/12 06:27:48;;;;;;;26.52;21.10;;;8.90;59.20;;;;;;6281700;22;20007;-85
2021/04/12 06:30:33;;;;;;;24.83;17.92;;;8.80;59.20;;;;;;6311906;22;20041;-86
2021/04/12 06:33:15;;;;;;;28.00;21.52;;;8.90;59.70;;;;;;6326168;22;20021;-85
2021/04/12 06:35:46;;;;;;;24.15;19.33;;;8.90;59.80;;;;;;6330674;22;20025;-85
2021/04/12 06:38:40;;;;;;;24.00;18.25;;;8.90;59.60;;;;;;6318996;22;20026;-87
2021/04/12 06:41:43;;;;;;;33.13;22.63;;;8.80;61.20;;;;;;6319281;22;20006;-87
2021/04/12 06:44:34;;;;;;;30.20;22.50;;;8.80;59.90;;;;;;6324211;22;20007;-86
2021/04/12 06:47:24;;;;;;;27.98;20.63;;;8.60;62.20;;;;;;6324906;22;20052;-84
2021/04/12 06:50:04;;;;;;;30.20;21.65;;;8.60;61.10;;;;;;6316105;22;19999;-85
2021/04/12 06:53:12;;;;;;;30.77;22.40;;;8.60;62.10;;;;;;6314146;22;20060;-86
2021/04/12 06:55:53;;;;;;;28.17;20.38;;;8.50;64.00;;;;;;6320143;22;20002;-86
2021/04/12 06:58:18;;;;;;;23.90;19.92;;;8.60;63.00;;;;;;6341083;22;20406;-87
2021/04/12 07:04:57;;;;;;;;;;;;;;;;;;;;;
2021/04/12 07:08:01;;;;;;;25.73;19.67;;;8.60;64.50;;;;;;6333478;22;20034;-90
2021/04/12 07:10:52;;;;;;;27.10;18.63;;;8.60;65.50;;;;;;6304509;22;20003;-89
2021/04/12 07:13:49;;;;;;;28.52;19.80;;;8.60;64.20;;;;;;6316281;22;20235;-90
2021/04/12 07:16:41;;;;;;;26.60;19.02;;;8.50;64.70;;;;;;6313752;22;20313;-92
2021/04/12 07:19:58;;;;;;;;;;;;;;;;;;;;;
2021/04/12 07:22:48;;;;;;;33.33;25.58;;;8.50;67.30;;;;;;6340888;22;20098;-91
2021/04/12 07:25:52;;;;;;;30.55;21.33;;;8.40;65.40;;;;;;6343381;22;20026;-89
2021/04/12 07:28:48;;;;;;;28.63;21.20;;;8.30;66.90;;;;;;6314456;22;20003;-91
2021/04/12 07:31:47;;;;;;;26.85;20.23;;;8.30;65.80;;;;;;6344398;22;20014;-91
2021/04/12 07:34:32;;;;;;;33.88;21.77;;;8.40;66.00;;;;;;6313508;22;20068;-91
2021/04/12 07:37:03;;;;;;;29.83;21.38;;;8.50;65.80;;;;;;6310771;22;19998;-90
2021/04/12 07:40:10;;;;;;;29.67;21.52;;;8.60;66.00;;;;;;6313744;22;20013;-92
2021/04/12 07:43:09;;;;;;;28.35;20.70;;;8.50;67.50;;;;;;6314005;22;20097;-91
2021/04/12 07:46:22;;;;;;;32.92;22.77;;;8.60;68.00;;;;;;6314611;22;20007;-91
2021/04/12 07:49:20;;;;;;;29.60;20.55;;;8.50;66.70;;;;;;6338523;22;20007;-90
2021/04/12 07:52:37;;;;;;;34.75;24.42;;;8.40;67.10;;;;;;6312758;22;20034;-90
2021/04/12 07:55:29;;;;;;;28.25;22.10;;;8.40;68.00;;;;;;6275134;22;20010;-90
2021/04/12 07:58:32;;;;;;;32.97;24.63;;;8.30;69.70;;;;;;6340269;22;20021;-92
2021/04/12 08:01:25;;;;;;;34.65;24.42;;;8.30;69.30;;;;;;6314044;22;19998;-92
2021/04/12 08:04:06;;;;;;;32.80;21.95;;;8.30;68.90;;;;;;6344913;22;20068;-91
2021/04/12 08:06:32;;;;;;;33.30;23.45;;;8.40;69.10;;;;;;6314870;22;19999;-91
2021/04/12 08:09:16;;;;;;;29.58;22.70;;;8.40;68.50;;;;;;6312064;22;20002;-91
2021/04/12 08:12:15;;;;;;;32.72;23.52;;;8.50;68.60;;;;;;6313276;22;20037;-90
2021/04/12 08:15:20;;;;;;;27.00;19.73;;;8.50;68.80;;;;;;6310451;22;20074;-90
2021/04/12 08:18:30;;;;;;;27.90;23.85;;;8.60;68.80;;;;;;6341093;22;19999;-91
2021/04/12 08:21:34;;;;;;;39.15;28.50;;;8.70;70.00;;;;;;6216734;22;20031;-90
2021/04/12 08:24:37;;;;;;;29.00;23.77;;;8.90;70.20;;;;;;6314621;22;20011;-91
2021/04/12 08:27:21;;;;;;;33.85;22.83;;;9.10;69.30;;;;;;6314987;22;19999;-90
2021/04/12 08:30:16;;;;;;;;;;;;;;;;;;;;;
2021/04/12 08:33:00;;;;;;;;;;;9.50;68.20;;;;;;6363029;22;19995;-92
2021/04/12 08:35:56;;;;;;;35.97;26.65;;;9.70;68.10;;;;;;6336685;22;19922;-89
2021/04/12 08:38:50;;;;;;;28.15;22.98;;;9.80;67.00;;;;;;6338176;22;20014;-92
2021/04/12 08:41:19;;;;;;;38.25;25.55;;;9.90;67.50;;;;;;6334850;22;20403;-91
2021/04/12 08:44:10;;;;;;;36.25;26.95;;;10.00;66.60;;;;;;6334130;22;20466;-89
2021/04/12 08:46:42;;;;;;;28.95;22.50;;;9.90;66.30;;;;;;6315983;22;20026;-90
2021/04/12 08:49:21;;;;;;;29.15;22.75;;;10.00;66.00;;;;;;6314306;22;19995;-91
2021/04/12 08:52:38;;;;;;;30.63;22.58;;;10.20;66.10;;;;;;6315165;22;20017;-91
2021/04/12 08:55:40;;;;;;;26.00;21.75;;;10.30;65.70;;;;;;6314573;22;20136;-91
2021/04/12 08:58:39;;;;;;;27.52;21.15;;;10.40;65.50;;;;;;6312439;22;20048;-86
2021/04/12 09:01:30;;;;;;;28.30;22.20;;;10.50;65.10;;;;;;6313811;22;19998;-89
2021/04/12 09:04:16;;;;;;;29.70;22.27;;;10.50;65.00;;;;;;6310948;22;20003;-88
2021/04/12 09:07:07;;;;;;;32.75;24.17;;;10.40;65.20;;;;;;6309675;22;20435;-88
2021/04/12 09:09:54;;;;;;;26.45;21.30;;;10.40;65.20;;;;;;6309289;22;20059;-89
2021/04/12 09:12:57;;;;;;;24.83;19.67;;;10.40;65.10;;;;;;6339462;22;20033;-89
2021/04/12 09:15:38;;;;;;;27.50;21.85;;;10.50;65.50;;;;;;6311287;22;20636;-87
2021/04/12 09:18:44;;;;;;;29.52;22.85;;;10.60;65.10;;;;;;6311450;22;20003;-86
2021/04/12 09:21:47;;;;;;;25.33;21.40;;;10.50;65.20;;;;;;6310251;22;20091;-86
2021/04/12 09:24:27;;;;;;;30.52;23.00;;;10.40;65.60;;;;;;6336090;22;20148;-87
2021/04/12 09:27:20;;;;;;;31.75;23.08;;;10.50;65.30;;;;;;6309270;22;20036;-88
2021/04/12 09:30:27;;;;;;;24.30;20.58;;;10.50;65.50;;;;;;6309666;22;19999;-88
2021/04/12 09:33:18;;;;;;;30.48;22.38;;;10.70;65.10;;;;;;6336069;22;20385;-89
2021/04/12 09:36:05;;;;;;;28.98;23.15;;;10.70;64.90;;;;;;6336633;22;20022;-88
2021/04/12 09:39:09;;;;;;;28.02;22.08;;;10.70;64.90;;;;;;6338644;22;20005;-88
2021/04/12 09:42:21;;;;;;;25.27;19.10;;;10.60;65.00;;;;;;6310831;22;20007;-89
2021/04/12 09:45:05;;;;;;;21.88;17.42;;;10.60;65.40;;;;;;6310162;22;20003;-89
2021/04/12 09:47:53;;;;;;;26.42;18.48;;;10.70;64.60;;;;;;6309739;22;20037;-89
2021/04/12 09:50:52;;;;;;;25.60;20.88;;;10.80;64.80;;;;;;6309806;22;20003;-88
2021/04/12 09:53:43;;;;;;;25.35;20.33;;;10.90;64.90;;;;;;6337999;22;19999;-88
2021/04/12 09:56:15;;;;;;;23.90;19.35;;;10.90;64.50;;;;;;6310633;22;19995;-89
2021/04/12 09:59:18;;;;;;;23.92;19.30;;;10.90;64.30;;;;;;6311225;22;19999;-89
2021/04/12 10:02:05;;;;;;;24.80;18.52;;;11.00;64.40;;;;;;6338337;22;20055;-88
2021/04/12 10:04:57;;;;;;;27.27;19.33;;;11.00;63.90;;;;;;6310873;22;20011;-88
2021/04/12 10:08:09;;;;;;;23.67;18.92;;;11.00;63.90;;;;;;6313166;22;20026;-87
2021/04/12 10:11:04;;;;;;;23.98;19.10;;;10.90;64.70;;;;;;6313343;22;20011;-87
2021/04/12 10:13:54;;;;;;;26.88;20.42;;;10.90;64.20;;;;;;6311117;22;20059;-88
2021/04/12 10:16:28;;;;;;;24.90;17.60;;;10.90;64.30;;;;;;6340341;22;20002;-89
2021/04/12 10:19:07;;;;;;;20.05;17.80;;;10.90;64.20;;;;;;6311510;22;19999;-88
2021/04/12 10:21:55;;;;;;;24.65;18.15;;;10.90;64.20;;;;;;6337587;22;20101;-88
2021/04/12 10:24:45;;;;;;;25.75;17.90;;;11.00;64.50;;;;;;6310680;22;20045;-88
2021/04/12 10:27:32;;;;;;;26.50;21.33;;;11.10;64.10;;;;;;6312151;22;20007;-90
2021/04/12 10:30:12;;;;;;;23.00;18.00;;;11.10;63.90;;;;;;6314641;22;20056;-89
2021/04/12 10:32:49;;;;;;;21.23;17.25;;;11.20;63.70;;;;;;6320692;22;20002;-90
2021/04/12 10:35:40;;;;;;;30.50;21.23;;;11.20;63.60;;;;;;6325958;22;19998;-86
2021/04/12 10:38:21;;;;;;;25.92;19.15;;;11.20;63.80;;;;;;6328336;22;19995;-87
2021/04/12 10:40:51;;;;;;;22.95;18.75;;;11.10;63.80;;;;;;6332282;22;20010;-89
2021/04/12 10:43:53;;;;;;;24.77;19.83;;;11.00;63.90;;;;;;6332442;22;20029;-88
2021/04/12 10:46:23;;;;;;;28.25;20.88;;;10.80;65.00;;;;;;6325458;22;20046;-93
2021/04/12 10:48:55;;;;;;;25.10;19.02;;;10.80;65.00;;;;;;6320059;22;20002;-89
2021/04/12 10:51:54;;;;;;;22.52;17.80;;;10.70;65.00;;;;;;6317279;22;19995;-90
2021/04/12 10:54:35;;;;;;;21.55;18.33;;;10.70;65.30;;;;;;6316496;22;19995;-90
2021/04/12 10:57:15;;;;;;;24.08;18.33;;;10.80;65.40;;;;;;6345081;22;20006;-93
2021/04/12 10:59:44;;;;;;;24.70;17.90;;;10.80;65.60;;;;;;6345585;22;19995;-91
2021/04/12 11:02:44;;;;;;;25.08;19.85;;;10.80;65.20;;;;;;6314366;22;20034;-90
2021/04/12 11:05:18;;;;;;;23.23;18.63;;;10.90;66.10;;;;;;6298087;22;20006;-91
2021/04/12 11:08:09;;;;;;;22.55;18.77;;;10.90;65.20;;;;;;6312634;22;20056;-90
2021/04/12 11:10:46;;;;;;;19.75;15.55;;;10.90;65.60;;;;;;6312083;22;20083;-90
2021/04/12 11:13:47;;;;;;;19.23;15.32;;;11.00;65.00;;;;;;6339065;22;20022;-90
2021/04/12 11:16:36;;;;;;;21.15;16.40;;;11.10;65.50;;;;;;6314530;22;20013;-93
2021/04/12 11:19:17;;;;;;;21.73;17.27;;;11.30;64.80;;;;;;6313034;22;20006;-89
2021/04/12 11:21:46;;;;;;;19.92;16.23;;;11.30;64.70;;;;;;6311539;22;20025;-87
2021/04/12 11:24:44;;;;;;;22.85;17.35;;;11.30;64.80;;;;;;6313682;22;20085;-90
2021/04/12 11:28:03;;;;;;;23.75;18.98;;;11.30;65.10;;;;;;6315640;22;20006;-93
2021/04/12 11:30:54;;;;;;;25.10;18.95;;;11.30;65.90;;;;;;6342025;22;20006;-92
2021/04/12 11:33:45;;;;;;;;;;;;;;;;;;;;;
2021/04/12 11:36:38;;;;;;;24.33;15.70;;;11.40;65.60;;;;;;6342795;22;20070;-90
2021/04/12 11:39:15;;;;;;;21.73;16.10;;;11.50;65.70;;;;;;6340623;22;20011;-91
2021/04/12 11:42:01;;;;;;;19.88;16.35;;;11.70;66.50;;;;;;6314197;22;19999;-91
2021/04/12 11:45:03;;;;;;;19.20;14.98;;;11.90;64.80;;;;;;6310581;22;20441;-91
2021/04/12 11:48:14;;;;;;;18.23;14.48;;;11.80;64.70;;;;;;6334951;22;20086;-91
2021/04/12 11:51:33;;;;;;;16.27;12.65;;;11.80;64.80;;;;;;6314654;22;20003;-91
2021/04/12 11:54:10;;;;;;;16.60;13.35;;;11.90;65.50;;;;;;6257083;22;19998;-89
2021/04/12 11:57:21;;;;;;;15.32;13.55;;;12.10;64.40;;;;;;6313288;22;20085;-92
2021/04/12 12:00:22;;;;;;;18.98;14.23;;;12.20;64.20;;;;;;6341216;22;20006;-91
2021/04/12 12:03:37;;;;;;;16.70;13.02;;;12.20;63.50;;;;;;6334445;22;20064;-92
2021/04/12 12:06:42;;;;;;;;;;;;;;;;;;;;;
2021/04/12 12:12:39;;;;;;;18.25;12.77;;;12.20;63.50;;;;;;6346368;22;20010;-92
2021/04/12 12:15:16;;;;;;;16.45;12.52;;;12.30;63.50;;;;;;6324789;22;20002;-93
2021/04/12 12:18:06;;;;;;;16.52;13.13;;;12.50;64.20;;;;;;6320268;22;20006;-92
2021/04/12 12:20:35;;;;;;;16.95;12.48;;;12.70;63.50;;;;;;6292572;22;20032;-93
2021/04/12 12:23:26;;;;;;;17.77;12.35;;;12.80;63.00;;;;;;6319447;22;20015;-94
2021/04/12 12:26:04;;;;;;;14.63;11.65;;;12.90;62.80;;;;;;6346542;22;20009;-92
2021/04/12 12:28:51;;;;;;;16.20;12.23;;;12.90;62.30;;;;;;6349967;22;20063;-92
2021/04/12 12:31:35;;;;;;;18.15;12.57;;;13.00;62.20;;;;;;6326598;22;20003;-92
2021/04/12 12:34:24;;;;;;;13.32;11.63;;;13.10;62.30;;;;;;6329686;22;20006;-92
2021/04/12 12:36:56;;;;;;;15.13;12.07;;;13.20;62.50;;;;;;6357831;22;19999;-91
2021/04/12 12:40:05;;;;;;;13.48;11.90;;;13.30;62.20;;;;;;6354587;22;19999;-94
2021/04/12 12:43:12;;;;;;;14.23;10.98;;;13.40;61.90;;;;;;6320790;22;20003;-92
2021/04/12 12:45:41;;;;;;;14.10;10.05;;;13.30;61.40;;;;;;6319422;22;20010;-91
2021/04/12 12:48:23;;;;;;;11.70;9.75;;;13.30;61.30;;;;;;6317842;22;20021;-92
2021/04/12 12:50:56;;;;;;;16.70;13.15;;;13.30;61.40;;;;;;6317774;22;20006;-90
2021/04/12 12:53:32;;;;;;;12.18;10.23;;;13.20;61.50;;;;;;6313745;22;20296;-91
2021/04/12 12:56:29;;;;;;;14.43;10.18;;;13.20;61.60;;;;;;6315195;22;20006;-90
2021/04/12 12:59:32;;;;;;;12.73;10.90;;;13.20;61.80;;;;;;6315781;22;20003;-90
2021/04/12 13:02:34;;;;;;;19.25;13.60;;;13.30;61.70;;;;;;6318437;22;20006;-92
2021/04/12 13:05:32;;;;;;;;;;;;;;;;;;;;;
2021/04/12 13:08:12;;;;;;;15.05;11.63;;;13.30;61.40;;;;;;6342700;22;20078;-91
2021/04/12 13:10:50;;;;;;;21.08;15.13;;;13.30;61.40;;;;;;6319550;22;20005;-91
2021/04/12 13:13:37;;;;;;;17.10;14.90;;;13.30;61.00;;;;;;6314283;22;20373;-92
2021/04/12 13:16:17;;;;;;;12.02;10.50;;;13.20;61.10;;;;;;6340330;22;20006;-91
2021/04/12 13:19:02;;;;;;;13.23;9.95;;;13.00;61.30;;;;;;6314019;22;20002;-90
2021/04/12 13:21:39;;;;;;;16.52;12.35;;;13.00;61.60;;;;;;6313858;22;20325;-89
2021/04/12 13:24:33;;;;;;;14.15;11.32;;;12.90;61.60;;;;;;6314374;22;20021;-92
2021/04/12 13:27:14;;;;;;;19.33;13.52;;;12.80;61.70;;;;;;6315386;22;20018;-92
2021/04/12 13:29:57;;;;;;;14.45;12.10;;;12.70;61.80;;;;;;6314033;22;20006;-91
2021/04/12 13:32:29;;;;;;;18.75;12.32;;;12.60;62.10;;;;;;6313939;22;20418;-91
2021/04/12 13:35:06;;;;;;;16.73;11.80;;;12.60;62.60;;;;;;6340621;22;20089;-90
2021/04/12 13:37:48;;;;;;;24.23;13.30;;;12.70;62.50;;;;;;6340584;22;20026;-91
2021/04/12 13:40:25;;;;;;;13.48;11.07;;;12.70;62.40;;;;;;6314195;22;20437;-89
2021/04/12 13:42:54;;;;;;;14.38;11.93;;;12.70;62.40;;;;;;6315838;22;20064;-89
2021/04/12 13:45:33;;;;;;;13.60;11.05;;;12.80;62.30;;;;;;6310233;22;20014;-89
2021/04/12 13:48:12;;;;;;;13.63;11.48;;;12.80;62.10;;;;;;6316018;22;19996;-90
2021/04/12 13:51:12;;;;;;;12.90;9.85;;;12.80;62.00;;;;;;6313602;22;20011;-89
2021/04/12 13:53:52;;;;;;;12.15;9.80;;;12.90;62.20;;;;;;6343207;22;20090;-90
2021/04/12 13:56:37;;;;;;;16.58;11.52;;;13.00;61.90;;;;;;6312301;22;20131;-88
2021/04/12 13:59:14;;;;;;;14.15;10.88;;;13.00;61.80;;;;;;6337603;22;20022;-89
2021/04/12 14:01:58;;;;;;;11.90;9.38;;;13.00;61.50;;;;;;6310551;22;19999;-89
2021/04/12 14:04:26;;;;;;;;;;;13.00;61.50;;;;;;6307788;22;20006;-90
2021/04/12 14:07:08;;;;;;;11.80;9.20;;;12.90;62.00;;;;;;6285206;22;19906;-90
2021/04/12 14:09:44;;;;;;;12.38;7.72;;;12.90;61.20;;;;;;6310816;22;19999;-89
2021/04/12 14:12:27;;;;;;;14.10;9.30;;;12.90;61.30;;;;;;6334342;22;20098;-91
2021/04/12 14:15:06;;;;;;;10.73;9.40;;;12.90;61.30;;;;;;6312104;22;20024;-92
2021/04/12 14:17:42;;;;;;;13.50;9.50;;;12.80;61.20;;;;;;6311592;22;20387;-90
2021/04/12 14:20:13;;;;;;;13.05;10.63;;;12.80;61.30;;;;;;6345370;22;20003;-91
2021/04/12 14:22:51;;;;;;;12.63;10.25;;;12.80;61.40;;;;;;6330943;22;20075;-93
2021/04/12 14:25:37;;;;;;;15.25;10.25;;;12.80;61.50;;;;;;6361961;22;20005;-90
2021/04/12 14:28:11;;;;;;;12.52;9.25;;;12.70;61.40;;;;;;6334915;22;19995;-90
2021/04/12 14:30:46;;;;;;;10.40;9.30;;;12.70;61.60;;;;;;6334068;22;20002;-92
2021/04/12 14:33:24;;;;;;;11.45;8.60;;;12.70;61.60;;;;;;6340310;22;20382;-91
2021/04/12 14:36:11;;;;;;;10.20;8.50;;;12.70;61.70;;;;;;6340194;22;20450;-92